Time;durP1;ratioP1;P1;durP2;ratioP2;P2;SDS_P1;SDS_P2;PMS_P1;PMS_P2;Temp;Humidity;BMP_temperature;BMP_pressure;BME280_temperature;BME280_humidity;BME280_pressure;Samples;Min_cycle;Max_cycle;Signal;HPM_P1;HPM_P2
2021/06/08 00:00:16;;;;;;;16.88;12.35;;;;;;;;;;6247901;28;20536;-82
2021/06/08 00:03:17;;;;;;;17.35;12.93;;;;;;;;;;6262184;28;20457;-82
2021/06/08 00:06:19;;;;;;;15.27;12.10;;;;;;;;;;6266548;28;20497;-82
2021/06/08 00:09:21;;;;;;;18.83;13.00;;;;;;;;;;6262150;28;20406;-82
2021/06/08 00:12:22;;;;;;;16.30;12.30;;;;;;;;;;6263840;28;20045;-82
2021/06/08 00:15:24;;;;;;;15.02;11.25;;;;;;;;;;6262995;28;20056;-82
2021/06/08 00:18:26;;;;;;;15.35;11.85;;;;;;;;;;6243191;28;20536;-82
2021/06/08 00:21:28;;;;;;;17.27;12.40;;;;;;;;;;6265082;28;20044;-82
2021/06/08 00:24:29;;;;;;;17.13;13.00;;;;;;;;;;6262116;28;20131;-82
2021/06/08 00:27:31;;;;;;;15.25;12.50;;;;;;;;;;6247168;28;20521;-83
2021/06/08 00:30:32;;;;;;;16.52;11.88;;;;;;;;;;6264645;28;20055;-81
2021/06/08 00:33:34;;;;;;;15.38;12.55;;;;;;;;;;6254912;28;20133;-83
2021/06/08 00:36:36;;;;;;;15.57;11.43;;;;;;;;;;6242795;28;20048;-83
2021/06/08 00:39:37;;;;;;;17.08;12.95;;;;;;;;;;6249753;28;20383;-82
2021/06/08 00:42:39;;;;;;;16.33;12.35;;;;;;;;;;6244885;28;20094;-82
2021/06/08 00:45:41;;;;;;;17.45;12.68;;;;;;;;;;6261845;28;20037;-82
2021/06/08 00:48:42;;;;;;;18.60;13.05;;;;;;;;;;6258662;28;20045;-82
2021/06/08 00:51:44;;;;;;;16.40;12.65;;;;;;;;;;6266435;28;20049;-81
2021/06/08 00:54:46;;;;;;;17.27;12.63;;;;;;;;;;6240894;28;20564;-82
2021/06/08 00:57:49;;;;;;;18.85;12.95;;;;;;;;;;6225716;28;20148;-81
2021/06/08 01:00:51;;;;;;;16.05;12.00;;;;;;;;;;6241365;28;20518;-82
2021/06/08 01:03:53;;;;;;;18.00;13.15;;;;;;;;;;6249874;28;20062;-82
2021/06/08 01:06:55;;;;;;;16.42;12.00;;;;;;;;;;6218830;28;20041;-83
2021/06/08 01:09:57;;;;;;;18.67;12.73;;;;;;;;;;6234798;28;20041;-82
2021/06/08 01:12:58;;;;;;;16.43;12.50;;;;;;;;;;6267173;28;20166;-83
2021/06/08 01:16:00;;;;;;;16.70;13.43;;;;;;;;;;6260131;28;20071;-82
2021/06/08 01:19:02;;;;;;;18.17;13.40;;;;;;;;;;6263166;28;20568;-83
2021/06/08 01:22:04;;;;;;;20.25;13.02;;;;;;;;;;6247286;28;20053;-82
2021/06/08 01:25:06;;;;;;;19.42;13.25;;;;;;;;;;6262750;28;20507;-82
2021/06/08 01:28:08;;;;;;;18.35;12.85;;;;;;;;;;6217012;28;20050;-81
2021/06/08 01:31:13;;;;;;;17.15;12.57;;;;;;;;;;6217379;28;20056;-83
2021/06/08 01:34:16;;;;;;;17.52;13.40;;;;;;;;;;6232171;28;20067;-82
2021/06/08 01:37:17;;;;;;;16.80;12.30;;;;;;;;;;6222878;28;20073;-82
2021/06/08 01:40:20;;;;;;;14.63;12.00;;;;;;;;;;6222245;28;20057;-82
2021/06/08 01:43:22;;;;;;;15.43;12.93;;;;;;;;;;6240424;28;20088;-82
2021/06/08 01:46:23;;;;;;;18.83;12.50;;;;;;;;;;6242743;28;20053;-82
2021/06/08 01:49:25;;;;;;;17.58;13.90;;;;;;;;;;6240194;28;20052;-81
2021/06/08 01:52:36;;;;;;;19.38;13.75;;;;;;;;;;6231961;28;20047;-83
2021/06/08 01:55:42;;;;;;;18.25;13.95;;;;;;;;;;6260962;28;20041;-83
2021/06/08 01:58:53;;;;;;;17.50;13.50;;;;;;;;;;6257722;28;20138;-81
2021/06/08 02:02:08;;;;;;;17.25;12.65;;;;;;;;;;6242615;28;20045;-83
2021/06/08 02:05:19;;;;;;;19.40;14.25;;;;;;;;;;6265049;28;20056;-82
2021/06/08 02:08:36;;;;;;;21.15;14.88;;;;;;;;;;6266218;28;20122;-82
2021/06/08 02:11:49;;;;;;;19.48;14.05;;;;;;;;;;6265986;28;20052;-83
2021/06/08 02:15:09;;;;;;;17.42;13.50;;;;;;;;;;6269357;28;20056;-83
2021/06/08 02:18:15;;;;;;;19.77;13.38;;;;;;;;;;6242315;28;20041;-82
2021/06/08 02:21:31;;;;;;;18.80;13.38;;;;;;;;;;6220739;28;20081;-82
2021/06/08 02:24:33;;;;;;;19.60;14.57;;;;;;;;;;6224998;28;20148;-82
2021/06/08 02:27:36;;;;;;;19.47;13.97;;;;;;;;;;6239884;28;20136;-82
2021/06/08 02:30:38;;;;;;;20.52;14.45;;;;;;;;;;6251774;28;20046;-83
2021/06/08 02:33:41;;;;;;;19.10;14.02;;;;;;;;;;6217931;28;20063;-81
2021/06/08 02:36:44;;;;;;;21.85;15.20;;;;;;;;;;6218383;28;20076;-82
2021/06/08 02:39:47;;;;;;;21.52;14.93;;;;;;;;;;6226010;28;20057;-83
2021/06/08 02:42:48;;;;;;;18.50;14.10;;;;;;;;;;6242997;28;20041;-83
2021/06/08 02:45:51;;;;;;;22.25;15.13;;;;;;;;;;6245694;28;20041;-82
2021/06/08 02:48:54;;;;;;;22.25;15.27;;;;;;;;;;6265891;28;20194;-82
2021/06/08 02:51:57;;;;;;;19.50;13.80;;;;;;;;;;6267350;28;20060;-82
2021/06/08 02:54:59;;;;;;;20.40;13.52;;;;;;;;;;6266004;28;20425;-83
2021/06/08 02:58:02;;;;;;;18.25;13.18;;;;;;;;;;6251682;28;20045;-83
2021/06/08 03:01:06;;;;;;;18.57;14.23;;;;;;;;;;6265683;28;20049;-82
2021/06/08 03:04:10;;;;;;;20.42;13.68;;;;;;;;;;6267656;28;20049;-83
2021/06/08 03:07:13;;;;;;;17.08;13.05;;;;;;;;;;6267365;28;20115;-83
2021/06/08 03:10:21;;;;;;;19.67;13.65;;;;;;;;;;6265929;28;20037;-82
2021/06/08 03:13:24;;;;;;;20.25;14.75;;;;;;;;;;6270375;28;20037;-83
2021/06/08 03:16:29;;;;;;;;;;;;;;;;;;6268932;28;20040;-83
2021/06/08 03:19:36;;;;;;;17.25;13.15;;;;;;;;;;6253203;28;19928;-82
2021/06/08 03:22:41;;;;;;;18.52;14.05;;;;;;;;;;6247005;28;20050;-82
2021/06/08 03:25:45;;;;;;;16.92;13.07;;;;;;;;;;6227007;28;20052;-82
2021/06/08 03:28:49;;;;;;;17.70;13.10;;;;;;;;;;6203204;28;20124;-82
2021/06/08 03:31:52;;;;;;;18.40;14.15;;;;;;;;;;6219554;28;20048;-83
2021/06/08 03:34:54;;;;;;;19.35;14.60;;;;;;;;;;6230306;28;20279;-82
2021/06/08 03:37:57;;;;;;;16.65;12.80;;;;;;;;;;6221655;28;20119;-82
2021/06/08 03:40:59;;;;;;;16.52;12.82;;;;;;;;;;6239129;28;20054;-82
2021/06/08 03:44:01;;;;;;;16.17;13.67;;;;;;;;;;6239883;28;20080;-82
2021/06/08 03:47:03;;;;;;;16.63;13.20;;;;;;;;;;6221887;28;20468;-82
2021/06/08 03:50:05;;;;;;;18.05;13.35;;;;;;;;;;6245955;28;20413;-82
2021/06/08 03:53:07;;;;;;;18.85;14.52;;;;;;;;;;6246060;28;20049;-83
2021/06/08 03:56:10;;;;;;;22.05;15.23;;;;;;;;;;6255519;28;20465;-83
2021/06/08 03:59:14;;;;;;;21.63;14.88;;;;;;;;;;6274921;28;20048;-83
2021/06/08 04:02:17;;;;;;;;;;;;;;;;;;6275887;28;20044;-83
2021/06/08 04:05:18;;;;;;;21.23;14.77;;;;;;;;;;6231774;28;19921;-83
2021/06/08 04:08:21;;;;;;;19.17;14.23;;;;;;;;;;6221092;28;20045;-83
2021/06/08 04:11:23;;;;;;;20.30;15.10;;;;;;;;;;6278495;28;20119;-83
2021/06/08 04:14:24;;;;;;;19.67;15.38;;;;;;;;;;6270299;28;20037;-82
2021/06/08 04:17:26;;;;;;;20.73;15.10;;;;;;;;;;6264139;28;20579;-82
2021/06/08 04:20:29;;;;;;;20.40;14.88;;;;;;;;;;6248115;28;20041;-82
2021/06/08 04:23:30;;;;;;;18.38;13.60;;;;;;;;;;6247335;28;20050;-84
2021/06/08 04:26:33;;;;;;;17.67;13.43;;;;;;;;;;6244179;28;20498;-83
2021/06/08 04:29:35;;;;;;;17.00;13.43;;;;;;;;;;6228859;28;20041;-83
2021/06/08 04:32:40;;;;;;;17.95;13.90;;;;;;;;;;6245571;28;20065;-84
2021/06/08 04:35:43;;;;;;;19.02;13.32;;;;;;;;;;6237327;28;20044;-83
2021/06/08 04:38:46;;;;;;;20.92;14.93;;;;;;;;;;6245839;28;20037;-84
2021/06/08 04:41:48;;;;;;;22.83;15.00;;;;;;;;;;6236229;28;20050;-83
2021/06/08 04:44:52;;;;;;;18.90;14.70;;;;;;;;;;6259948;28;20132;-83
2021/06/08 04:47:54;;;;;;;20.55;15.30;;;;;;;;;;6253948;28;20152;-83
2021/06/08 04:50:56;;;;;;;20.60;16.30;;;;;;;;;;6249420;28;20045;-83
2021/06/08 04:53:58;;;;;;;18.70;14.50;;;;;;;;;;6256162;28;20038;-83
2021/06/08 04:57:05;;;;;;;22.42;16.02;;;;;;;;;;6270856;28;20056;-83
2021/06/08 05:00:13;;;;;;;20.77;15.60;;;;;;;;;;6270187;28;20108;-83
2021/06/08 05:03:18;;;;;;;21.58;15.70;;;;;;;;;;6251105;28;20046;-84
2021/06/08 05:06:27;;;;;;;20.40;15.07;;;;;;;;;;6223369;28;20046;-83
2021/06/08 05:09:48;;;;;;;23.10;15.85;;;;;;;;;;6192882;28;20054;-83
2021/06/08 05:12:50;;;;;;;21.45;15.32;;;;;;;;;;6204858;28;20095;-84
2021/06/08 05:15:54;;;;;;;20.23;15.80;;;;;;;;;;6220991;28;20538;-84
2021/06/08 05:18:58;;;;;;;21.42;17.23;;;;;;;;;;6218902;28;20780;-83
2021/06/08 05:22:00;;;;;;;20.58;15.57;;;;;;;;;;6216328;28;20172;-83
2021/06/08 05:25:02;;;;;;;18.70;15.38;;;;;;;;;;6241579;28;20038;-82
2021/06/08 05:28:05;;;;;;;20.73;13.77;;;;;;;;;;6239556;28;20048;-83
2021/06/08 05:31:06;;;;;;;19.05;15.73;;;;;;;;;;6239032;28;20211;-83
2021/06/08 05:34:08;;;;;;;20.70;15.65;;;;;;;;;;6222531;28;20045;-83
2021/06/08 05:37:11;;;;;;;19.52;15.88;;;;;;;;;;6239974;28;20570;-83
2021/06/08 05:40:13;;;;;;;21.33;15.40;;;;;;;;;;6238952;28;20629;-82
2021/06/08 05:43:15;;;;;;;19.90;15.27;;;;;;;;;;6226192;28;20128;-83
2021/06/08 05:46:17;;;;;;;18.95;14.63;;;;;;;;;;6248943;28;20044;-83
2021/06/08 05:49:18;;;;;;;21.30;15.13;;;;;;;;;;6230740;28;20522;-82
2021/06/08 05:52:20;;;;;;;19.58;14.93;;;;;;;;;;6241166;28;20109;-81
2021/06/08 05:55:25;;;;;;;21.33;15.85;;;;;;;;;;6249395;28;20056;-80
2021/06/08 05:58:31;;;;;;;22.95;15.60;;;;;;;;;;6217017;28;20056;-80
2021/06/08 06:01:33;;;;;;;22.90;15.35;;;;;;;;;;6215923;28;20136;-82
2021/06/08 06:04:36;;;;;;;23.17;16.30;;;;;;;;;;6215889;28;20061;-82
2021/06/08 06:07:38;;;;;;;;;;;;;;;;;;6216980;28;20065;-80
2021/06/08 06:10:41;;;;;;;22.75;16.80;;;;;;;;;;6231142;28;20374;-82
2021/06/08 06:14:01;;;;;;;22.58;16.65;;;;;;;;;;6243386;28;20101;-81
2021/06/08 06:17:03;;;;;;;22.77;16.88;;;;;;;;;;6258787;28;20049;-81
2021/06/08 06:20:09;;;;;;;20.40;16.20;;;;;;;;;;6239782;28;20053;-83
2021/06/08 06:23:11;;;;;;;20.52;16.15;;;;;;;;;;6244603;28;20124;-83
2021/06/08 06:26:13;;;;;;;24.90;18.75;;;;;;;;;;6265163;28;20056;-83
2021/06/08 06:29:15;;;;;;;24.23;17.60;;;;;;;;;;6270303;28;20082;-83
2021/06/08 06:32:20;;;;;;;22.35;17.23;;;;;;;;;;6268527;28;20076;-82
2021/06/08 06:35:22;;;;;;;23.08;16.52;;;;;;;;;;6223550;28;20050;-81
2021/06/08 06:38:25;;;;;;;22.25;16.98;;;;;;;;;;6219100;28;20044;-83
2021/06/08 06:41:27;;;;;;;21.73;16.60;;;;;;;;;;6263231;28;20526;-82
2021/06/08 06:44:32;;;;;;;22.42;16.80;;;;;;;;;;6269191;28;20059;-83
2021/06/08 06:47:35;;;;;;;22.20;16.70;;;;;;;;;;6268259;28;20049;-82
2021/06/08 06:50:38;;;;;;;23.00;17.02;;;;;;;;;;6242588;28;20047;-82
2021/06/08 06:53:40;;;;;;;23.10;17.35;;;;;;;;;;6243395;28;20511;-81
2021/06/08 06:56:43;;;;;;;21.47;17.23;;;;;;;;;;6260331;28;20048;-81
2021/06/08 06:59:46;;;;;;;24.02;18.23;;;;;;;;;;6238211;28;20456;-81
2021/06/08 07:02:49;;;;;;;23.90;18.23;;;;;;;;;;6239208;28;20586;-80
2021/06/08 07:05:51;;;;;;;21.45;16.55;;;;;;;;;;6231877;28;20050;-82
2021/06/08 07:08:55;;;;;;;22.88;17.42;;;;;;;;;;6239739;28;20089;-82
2021/06/08 07:11:58;;;;;;;21.75;16.48;;;;;;;;;;6244668;28;20052;-80
2021/06/08 07:15:00;;;;;;;24.33;17.52;;;;;;;;;;6261454;28;20073;-82
2021/06/08 07:18:03;;;;;;;23.13;18.17;;;;;;;;;;6256555;28;20134;-81
2021/06/08 07:21:06;;;;;;;;;;;;;;;;;;6244130;28;20549;-82
2021/06/08 07:24:09;;;;;;;23.50;17.73;;;;;;;;;;6242108;28;19992;-82
2021/06/08 07:27:13;;;;;;;21.17;17.58;;;;;;;;;;6241609;28;20048;-81
2021/06/08 07:30:16;;;;;;;22.30;16.73;;;;;;;;;;6234948;28;20052;-80
2021/06/08 07:33:24;;;;;;;22.85;17.95;;;;;;;;;;6253725;28;20105;-82
2021/06/08 07:36:34;;;;;;;23.85;16.42;;;;;;;;;;6230893;28;20049;-82
2021/06/08 07:39:49;;;;;;;21.95;17.80;;;;;;;;;;6269896;28;20105;-81
2021/06/08 07:42:57;;;;;;;20.80;16.35;;;;;;;;;;6254387;28;20073;-82
2021/06/08 07:46:02;;;;;;;20.30;16.63;;;;;;;;;;6273668;28;20120;-82
2021/06/08 07:49:06;;;;;;;19.50;16.45;;;;;;;;;;6291961;28;20518;-82
2021/06/08 07:52:09;;;;;;;20.80;16.98;;;;;;;;;;6251978;28;20061;-81
2021/06/08 07:55:12;;;;;;;21.17;17.17;;;;;;;;;;6264123;28;20052;-82
2021/06/08 07:58:14;;;;;;;;;;;;;;;;;;6279677;28;20120;-83
2021/06/08 08:01:18;;;;;;;19.73;16.17;;;;;;;;;;6277983;28;20003;-82
2021/06/08 08:04:22;;;;;;;19.42;16.20;;;;;;;;;;6279056;28;20060;-82
2021/06/08 08:07:26;;;;;;;21.95;16.35;;;;;;;;;;6279739;28;20113;-82
2021/06/08 08:10:27;;;;;;;22.27;16.95;;;;;;;;;;6277513;28;20059;-83
2021/06/08 08:13:29;;;;;;;19.85;15.13;;;;;;;;;;6262824;28;20556;-82
2021/06/08 08:16:33;;;;;;;20.08;15.90;;;;;;;;;;6244801;28;20049;-81
2021/06/08 08:19:36;;;;;;;17.83;15.88;;;;;;;;;;6247140;28;20457;-82
2021/06/08 08:22:38;;;;;;;21.73;16.92;;;;;;;;;;6252457;28;20105;-82
2021/06/08 08:25:40;;;;;;;20.83;16.13;;;;;;;;;;6256274;28;20124;-82
2021/06/08 08:28:43;;;;;;;17.83;14.93;;;;;;;;;;6258424;28;20071;-80
2021/06/08 08:31:45;;;;;;;17.67;15.07;;;;;;;;;;6284638;28;20463;-80
2021/06/08 08:34:46;;;;;;;21.83;16.50;;;;;;;;;;6298485;28;20040;-80
2021/06/08 08:37:48;;;;;;;17.38;15.02;;;;;;;;;;6275584;28;20053;-82
2021/06/08 08:40:51;;;;;;;20.70;15.80;;;;;;;;;;6258061;28;20083;-83
2021/06/08 08:44:12;;;;;;;17.15;14.27;;;;;;;;;;6247976;28;20103;-83
2021/06/08 08:47:15;;;;;;;20.48;16.27;;;;;;;;;;6240351;28;20123;-82
2021/06/08 08:50:17;;;;;;;18.65;14.68;;;;;;;;;;6240448;28;20053;-84
2021/06/08 08:53:19;;;;;;;20.83;16.20;;;;;;;;;;6236374;28;20049;-82
2021/06/08 08:56:26;;;;;;;18.70;16.15;;;;;;;;;;6237060;28;20029;-83
2021/06/08 08:59:28;;;;;;;17.48;13.93;;;;;;;;;;6225240;28;20052;-82
2021/06/08 09:02:32;;;;;;;17.85;14.82;;;;;;;;;;6234381;28;20117;-81
2021/06/08 09:05:38;;;;;;;20.10;14.95;;;;;;;;;;6262958;28;20046;-83
2021/06/08 09:08:40;;;;;;;18.67;15.07;;;;;;;;;;6259580;28;20056;-83
2021/06/08 09:11:42;;;;;;;18.38;14.45;;;;;;;;;;6260325;28;20057;-82
2021/06/08 09:14:44;;;;;;;18.52;14.68;;;;;;;;;;6242908;28;20068;-84
2021/06/08 09:17:46;;;;;;;17.77;14.55;;;;;;;;;;6255026;28;20124;-84
2021/06/08 09:20:48;;;;;;;16.58;14.43;;;;;;;;;;6253336;28;20107;-81
2021/06/08 09:23:52;;;;;;;17.17;14.38;;;;;;;;;;6256131;28;20055;-81
2021/06/08 09:26:57;;;;;;;14.85;12.88;;;;;;;;;;6254309;28;20056;-82
2021/06/08 09:29:59;;;;;;;14.38;12.63;;;;;;;;;;6269941;28;20107;-82
2021/06/08 09:33:20;;;;;;;15.60;11.93;;;;;;;;;;6254506;28;20091;-83
2021/06/08 09:36:29;;;;;;;16.33;13.70;;;;;;;;;;6248282;28;20140;-81
2021/06/08 09:39:31;;;;;;;19.38;13.60;;;;;;;;;;6243972;28;20048;-81
2021/06/08 09:42:32;;;;;;;12.32;11.00;;;;;;;;;;6241666;28;20105;-81
2021/06/08 09:45:42;;;;;;;13.73;12.32;;;;;;;;;;6235127;28;20042;-83
2021/06/08 09:49:05;;;;;;;13.50;11.65;;;;;;;;;;6244016;28;20049;-83
2021/06/08 09:52:09;;;;;;;13.30;11.90;;;;;;;;;;6240121;28;20411;-82
2021/06/08 09:55:10;;;;;;;12.07;10.80;;;;;;;;;;6250408;28;20053;-82
2021/06/08 09:58:12;;;;;;;12.80;11.35;;;;;;;;;;6251581;28;20669;-84
2021/06/08 10:01:17;;;;;;;12.30;11.02;;;;;;;;;;6254799;28;20108;-83
2021/06/08 10:04:20;;;;;;;11.32;9.70;;;;;;;;;;6270053;28;20048;-82
2021/06/08 10:07:29;;;;;;;12.52;11.23;;;;;;;;;;6280320;28;20091;-82
2021/06/08 10:10:42;;;;;;;13.63;10.90;;;;;;;;;;6253287;28;20163;-82
2021/06/08 10:13:43;;;;;;;11.90;10.70;;;;;;;;;;6249254;28;20084;-82
2021/06/08 10:16:58;;;;;;;10.75;9.30;;;;;;;;;;6235789;28;20113;-82
2021/06/08 10:20:26;;;;;;;11.70;9.60;;;;;;;;;;6259292;28;20041;-81
2021/06/08 10:23:33;;;;;;;10.45;9.38;;;;;;;;;;6232637;28;20042;-81
2021/06/08 10:26:36;;;;;;;11.35;10.00;;;;;;;;;;6254392;28;20072;-82
2021/06/08 10:29:38;;;;;;;11.95;10.25;;;;;;;;;;6249432;28;20098;-81
2021/06/08 10:32:39;;;;;;;13.82;10.35;;;;;;;;;;6238010;28;20125;-81
2021/06/08 10:35:43;;;;;;;11.87;10.67;;;;;;;;;;6258429;28;20045;-82
2021/06/08 10:38:45;;;;;;;11.30;10.00;;;;;;;;;;6242402;28;20065;-81
2021/06/08 10:41:47;;;;;;;11.32;9.95;;;;;;;;;;6267195;28;20067;-81
2021/06/08 10:44:49;;;;;;;12.05;10.85;;;;;;;;;;6240907;28;20058;-80
2021/06/08 10:47:55;;;;;;;11.30;10.10;;;;;;;;;;6231778;28;20144;-81
2021/06/08 10:51:12;;;;;;;12.35;9.80;;;;;;;;;;6233440;28;20049;-80
2021/06/08 10:54:18;;;;;;;12.88;11.00;;;;;;;;;;6240336;28;20052;-81
2021/06/08 10:57:20;;;;;;;13.52;9.75;;;;;;;;;;6248570;28;20103;-81
2021/06/08 11:00:31;;;;;;;11.80;9.82;;;;;;;;;;6268983;28;20135;-80
2021/06/08 11:03:52;;;;;;;11.90;9.77;;;;;;;;;;6270527;28;20041;-80
2021/06/08 11:06:59;;;;;;;11.05;9.90;;;;;;;;;;6271455;28;20041;-80
2021/06/08 11:10:02;;;;;;;11.70;10.50;;;;;;;;;;6271770;28;20126;-81
2021/06/08 11:13:10;;;;;;;12.27;10.52;;;;;;;;;;6276145;28;20263;-81
2021/06/08 11:16:38;;;;;;;10.00;8.88;;;;;;;;;;6273735;28;20124;-81
2021/06/08 11:19:56;;;;;;;8.93;8.10;;;;;;;;;;6262268;28;20049;-81
2021/06/08 11:22:59;;;;;;;9.07;8.20;;;;;;;;;;6247007;28;20128;-82
2021/06/08 11:26:02;;;;;;;10.40;7.88;;;;;;;;;;6246299;28;20046;-82
2021/06/08 11:29:03;;;;;;;9.65;8.38;;;;;;;;;;6245328;28;20048;-81
2021/06/08 11:32:05;;;;;;;11.30;8.43;;;;;;;;;;6246848;28;20084;-82
2021/06/08 11:35:10;;;;;;;9.52;8.40;;;;;;;;;;6247143;28;20063;-82
2021/06/08 11:38:15;;;;;;;8.90;8.00;;;;;;;;;;6222631;28;20123;-81
2021/06/08 11:41:18;;;;;;;8.25;7.45;;;;;;;;;;6243419;28;20050;-82
2021/06/08 11:44:20;;;;;;;11.95;9.10;;;;;;;;;;6248819;28;20049;-82
2021/06/08 11:47:33;;;;;;;10.70;7.90;;;;;;;;;;6248560;28;20056;-82
2021/06/08 11:50:46;;;;;;;12.35;9.55;;;;;;;;;;6238312;28;20543;-81
2021/06/08 11:54:05;;;;;;;14.15;9.80;;;;;;;;;;6223313;28;20519;-82
2021/06/08 11:57:31;;;;;;;9.23;7.70;;;;;;;;;;6197587;28;20042;-82
2021/06/08 12:00:53;;;;;;;11.82;7.30;;;;;;;;;;6199918;28;20054;-82
2021/06/08 12:04:00;;;;;;;7.47;6.65;;;;;;;;;;6205539;28;20084;-82
2021/06/08 12:07:04;;;;;;;11.73;8.00;;;;;;;;;;6239601;28;20048;-81
2021/06/08 12:10:06;;;;;;;6.22;5.63;;;;;;;;;;6246595;28;20041;-83
2021/06/08 12:13:09;;;;;;;7.85;5.88;;;;;;;;;;6249616;28;20091;-81
2021/06/08 12:16:12;;;;;;;6.50;5.90;;;;;;;;;;6261746;28;20037;-81
2021/06/08 12:19:14;;;;;;;5.88;5.35;;;;;;;;;;6248485;28;20045;-80
2021/06/08 12:22:18;;;;;;;6.33;5.73;;;;;;;;;;6269128;28;20118;-81
2021/06/08 12:25:19;;;;;;;6.72;5.28;;;;;;;;;;6247151;28;20577;-80
2021/06/08 12:28:21;;;;;;;6.10;5.50;;;;;;;;;;6237341;28;20128;-81
2021/06/08 12:31:23;;;;;;;8.85;5.25;;;;;;;;;;6221995;28;20807;-81
2021/06/08 12:34:27;;;;;;;5.40;4.90;;;;;;;;;;6233863;28;20041;-81
2021/06/08 12:37:29;;;;;;;5.82;5.13;;;;;;;;;;6244038;28;20053;-80
2021/06/08 12:40:31;;;;;;;6.55;5.57;;;;;;;;;;6257216;28;20045;-80
2021/06/08 12:43:51;;;;;;;8.13;5.15;;;;;;;;;;6269616;28;20037;-80
2021/06/08 12:46:53;;;;;;;5.50;5.00;;;;;;;;;;6256178;28;20107;-81
2021/06/08 12:49:55;;;;;;;5.78;5.10;;;;;;;;;;6255903;28;20415;-81
2021/06/08 12:53:00;;;;;;;5.10;4.70;;;;;;;;;;6256136;28;20129;-82
2021/06/08 12:56:01;;;;;;;5.30;4.80;;;;;;;;;;6222484;28;20629;-83
2021/06/08 12:59:07;;;;;;;7.63;5.32;;;;;;;;;;6235253;28;20096;-82
2021/06/08 13:02:10;;;;;;;6.22;4.55;;;;;;;;;;6235395;28;20042;-81
2021/06/08 13:05:13;;;;;;;8.15;5.47;;;;;;;;;;6230496;28;20034;-81
2021/06/08 13:08:17;;;;;;;6.10;5.00;;;;;;;;;;6227256;28;20586;-82
2021/06/08 13:11:27;;;;;;;6.05;5.40;;;;;;;;;;6264419;28;20421;-82
2021/06/08 13:14:28;;;;;;;7.70;5.78;;;;;;;;;;6246594;28;20052;-83
2021/06/08 13:17:30;;;;;;;6.97;5.53;;;;;;;;;;6246842;28;20045;-82
2021/06/08 13:20:35;;;;;;;6.17;5.40;;;;;;;;;;6254254;28;20112;-80
2021/06/08 13:23:37;;;;;;;5.82;5.22;;;;;;;;;;6250708;28;20045;-81
2021/06/08 13:26:39;;;;;;;7.63;5.30;;;;;;;;;;6253942;28;20117;-80
2021/06/08 13:29:42;;;;;;;6.18;5.68;;;;;;;;;;6246484;28;20048;-80
2021/06/08 13:32:44;;;;;;;;;;;;;;;;;;6259269;28;20112;-80
2021/06/08 13:35:53;;;;;;;6.88;5.22;;;;;;;;;;6252593;28;19984;-80
2021/06/08 13:39:19;;;;;;;6.13;5.13;;;;;;;;;;6251011;28;20121;-81
2021/06/08 13:42:21;;;;;;;5.43;4.90;;;;;;;;;;6258547;28;20068;-81
2021/06/08 13:45:30;;;;;;;6.13;4.87;;;;;;;;;;6264153;28;20108;-80
2021/06/08 13:48:38;;;;;;;5.85;5.35;;;;;;;;;;6257017;28;20045;-80
2021/06/08 13:51:50;;;;;;;5.78;4.72;;;;;;;;;;6248138;28;20080;-80
2021/06/08 13:54:52;;;;;;;5.20;4.72;;;;;;;;;;6254686;28;20162;-80
2021/06/08 14:01:36;;;;;;;5.97;5.38;;;;;;;;;;6226674;28;20065;-78
2021/06/08 14:04:46;;;;;;;6.07;5.28;;;;;;;;;;6240495;28;20129;-80
2021/06/08 14:07:48;;;;;;;5.50;4.90;;;;;;;;;;6248610;28;20051;-80
2021/06/08 14:10:51;;;;;;;5.38;4.88;;;;;;;;;;6205695;28;20060;-80
2021/06/08 14:13:57;;;;;;;5.97;4.95;;;;;;;;;;6206287;28;20042;-80
2021/06/08 14:17:11;;;;;;;6.22;5.00;;;;;;;;;;6218979;28;20066;-81
2021/06/08 14:20:13;;;;;;;;;;;;;;;;;;6228725;28;20050;-80
2021/06/08 14:23:15;;;;;;;6.80;4.95;;;;;;;;;;6223651;28;20013;-80
2021/06/08 14:26:16;;;;;;;7.45;4.57;;;;;;;;;;6227146;28;20495;-81
2021/06/08 14:29:18;;;;;;;5.93;4.82;;;;;;;;;;6219036;28;20046;-81
2021/06/08 14:32:20;;;;;;;7.88;5.32;;;;;;;;;;6229735;28;20048;-79
2021/06/08 14:35:22;;;;;;;5.22;4.63;;;;;;;;;;6217944;28;20153;-84
2021/06/08 14:38:23;;;;;;;5.05;4.57;;;;;;;;;;6216595;28;20042;-83
2021/06/08 14:41:29;;;;;;;5.20;4.70;;;;;;;;;;6215135;28;20043;-83
2021/06/08 14:44:31;;;;;;;7.07;5.22;;;;;;;;;;6214267;28;20125;-83
2021/06/08 14:47:42;;;;;;;5.83;4.40;;;;;;;;;;6260708;28;20211;-84
2021/06/08 14:50:43;;;;;;;5.65;4.80;;;;;;;;;;6260660;28;20096;-84
2021/06/08 14:53:45;;;;;;;5.10;4.60;;;;;;;;;;6248235;28;20053;-84
2021/06/08 14:56:47;;;;;;;5.27;4.77;;;;;;;;;;6251046;28;20037;-84
2021/06/08 14:59:48;;;;;;;5.47;4.97;;;;;;;;;;6246263;28;20065;-84
2021/06/08 15:02:50;;;;;;;6.27;5.07;;;;;;;;;;6247704;28;20041;-84
2021/06/08 15:05:54;;;;;;;5.35;4.85;;;;;;;;;;6238529;28;20076;-84
2021/06/08 15:08:56;;;;;;;5.82;5.22;;;;;;;;;;6236364;28;20410;-83
2021/06/08 15:11:57;;;;;;;7.60;6.90;;;;;;;;;;6220869;28;20439;-84
2021/06/08 15:15:01;;;;;;;7.37;5.20;;;;;;;;;;6236746;28;20222;-84
2021/06/08 15:18:02;;;;;;;14.43;10.82;;;;;;;;;;6253772;28;20045;-84
2021/06/08 15:21:04;;;;;;;6.05;5.45;;;;;;;;;;6227475;28;20046;-84
2021/06/08 15:24:06;;;;;;;5.83;5.10;;;;;;;;;;6238492;28;20049;-83
2021/06/08 15:27:08;;;;;;;5.68;5.03;;;;;;;;;;6261835;28;20447;-84
2021/06/08 15:30:11;;;;;;;5.72;5.00;;;;;;;;;;6261195;28;20540;-84
2021/06/08 15:33:12;;;;;;;5.50;5.07;;;;;;;;;;6255163;28;20821;-84
2021/06/08 15:36:14;;;;;;;5.47;4.97;;;;;;;;;;6254325;28;20109;-84
2021/06/08 15:39:15;;;;;;;5.80;5.03;;;;;;;;;;6265584;28;20047;-84
2021/06/08 15:42:17;;;;;;;6.25;5.03;;;;;;;;;;6251864;28;20108;-83
2021/06/08 15:45:19;;;;;;;5.83;5.17;;;;;;;;;;6249357;28;20140;-84
2021/06/08 15:48:21;;;;;;;5.43;4.93;;;;;;;;;;6247098;28;21020;-84
2021/06/08 15:51:22;;;;;;;5.47;4.90;;;;;;;;;;6243434;28;20494;-84
2021/06/08 15:54:24;;;;;;;5.72;5.22;;;;;;;;;;6244521;28;20147;-84
2021/06/08 15:57:25;;;;;;;5.70;5.20;;;;;;;;;;6245929;28;20045;-83
2021/06/08 16:00:27;;;;;;;5.50;5.00;;;;;;;;;;6234251;28;20041;-84
2021/06/08 16:03:29;;;;;;;6.30;5.33;;;;;;;;;;6243700;28;20053;-84
2021/06/08 16:06:34;;;;;;;6.63;5.57;;;;;;;;;;6268136;28;20074;-84
2021/06/08 16:09:37;;;;;;;5.50;5.00;;;;;;;;;;6267264;28;20044;-84
2021/06/08 16:12:39;;;;;;;5.75;5.25;;;;;;;;;;6245677;28;20056;-84
2021/06/08 16:15:40;;;;;;;5.43;4.93;;;;;;;;;;6242941;28;20042;-84
2021/06/08 16:18:42;;;;;;;5.73;5.23;;;;;;;;;;6225088;28;20129;-83
2021/06/08 16:21:45;;;;;;;5.60;5.13;;;;;;;;;;6255407;28;20048;-83
2021/06/08 16:24:47;;;;;;;5.53;5.03;;;;;;;;;;6250967;28;20068;-80
2021/06/08 16:27:48;;;;;;;5.18;4.68;;;;;;;;;;6269682;28;20041;-80
2021/06/08 16:30:51;;;;;;;4.90;4.50;;;;;;;;;;6268052;28;20037;-80
2021/06/08 16:33:52;;;;;;;5.57;4.90;;;;;;;;;;6251829;28;20128;-79
2021/06/08 16:36:55;;;;;;;5.22;4.82;;;;;;;;;;6246352;28;20140;-79
2021/06/08 16:39:56;;;;;;;5.43;4.97;;;;;;;;;;6237551;28;20037;-80
2021/06/08 16:42:58;;;;;;;6.15;5.55;;;;;;;;;;6243841;28;20041;-79
2021/06/08 16:46:00;;;;;;;5.40;4.90;;;;;;;;;;6245351;28;20094;-79
2021/06/08 16:49:02;;;;;;;5.72;4.50;;;;;;;;;;6242299;28;20056;-78
2021/06/08 16:55:30;;;;;;;5.30;4.80;;;;;;;;;;6226116;28;20092;-80
2021/06/08 16:58:31;;;;;;;5.10;4.60;;;;;;;;;;6244707;28;20104;-80
2021/06/08 17:01:33;;;;;;;5.43;4.93;;;;;;;;;;6260174;28;20065;-79
2021/06/08 17:04:35;;;;;;;5.53;5.00;;;;;;;;;;6273394;28;20520;-78
2021/06/08 17:07:38;;;;;;;5.38;4.88;;;;;;;;;;6246696;28;20448;-77
2021/06/08 17:10:40;;;;;;;5.32;4.82;;;;;;;;;;6267397;28;20052;-79
2021/06/08 17:13:41;;;;;;;5.53;5.00;;;;;;;;;;6229247;28;20127;-80
2021/06/08 17:16:43;;;;;;;4.83;4.40;;;;;;;;;;6221200;28;20038;-79
2021/06/08 17:19:45;;;;;;;5.00;4.60;;;;;;;;;;6240982;28;20092;-80
2021/06/08 17:22:47;;;;;;;5.63;5.00;;;;;;;;;;6214672;28;20045;-79
2021/06/08 17:25:49;;;;;;;5.80;5.20;;;;;;;;;;6215732;28;20056;-80
2021/06/08 17:28:51;;;;;;;5.45;4.63;;;;;;;;;;6213651;28;20034;-80
2021/06/08 17:31:53;;;;;;;5.43;4.67;;;;;;;;;;6212867;28;20042;-79
2021/06/08 17:34:54;;;;;;;5.18;4.68;;;;;;;;;;6212009;28;20060;-79
2021/06/08 17:37:56;;;;;;;4.90;4.50;;;;;;;;;;6207734;28;20102;-80
2021/06/08 17:40:59;;;;;;;5.47;4.60;;;;;;;;;;6208217;28;21027;-80
2021/06/08 17:44:01;;;;;;;4.90;4.40;;;;;;;;;;6211956;28;20437;-80
2021/06/08 17:47:03;;;;;;;4.28;3.97;;;;;;;;;;6210600;28;20045;-79
2021/06/08 17:50:06;;;;;;;4.97;4.47;;;;;;;;;;6211923;28;20718;-79
2021/06/08 17:53:07;;;;;;;5.07;4.57;;;;;;;;;;6208507;28;20049;-78
2021/06/08 17:56:09;;;;;;;5.72;4.75;;;;;;;;;;6232130;28;20049;-79
2021/06/08 17:59:13;;;;;;;5.23;4.73;;;;;;;;;;6233855;28;20518;-80
2021/06/08 18:02:15;;;;;;;5.53;5.03;;;;;;;;;;6230179;28;20452;-79
2021/06/08 18:05:17;;;;;;;5.72;5.20;;;;;;;;;;6235181;28;20442;-79
2021/06/08 18:08:18;;;;;;;6.57;5.07;;;;;;;;;;6231395;28;20140;-79
2021/06/08 18:11:20;;;;;;;5.28;4.78;;;;;;;;;;6224433;28;20046;-80